sensor_id;sensor_type;location;lat;lon;timestamp;temperature;humidity
36690;DHT22;22676;51.120;3.702;2023-11-19T00:00:27;22.20;53.60
36690;DHT22;22676;51.120;3.702;2023-11-19T00:02:53;22.20;53.60
36690;DHT22;22676;51.120;3.702;2023-11-19T00:05:19;22.20;53.60
36690;DHT22;22676;51.120;3.702;2023-11-19T00:07:44;22.20;53.60
36690;DHT22;22676;51.120;3.702;2023-11-19T00:10:17;22.20;53.60
36690;DHT22;22676;51.120;3.702;2023-11-19T00:12:47;22.20;53.70
36690;DHT22;22676;51.120;3.702;2023-11-19T00:15:14;22.10;53.60
36690;DHT22;22676;51.120;3.702;2023-11-19T00:17:41;22.20;53.80
36690;DHT22;22676;51.120;3.702;2023-11-19T00:20:11;22.10;53.70
36690;DHT22;22676;51.120;3.702;2023-11-19T00:22:36;22.10;53.70
36690;DHT22;22676;51.120;3.702;2023-11-19T00:25:02;22.10;53.60
36690;DHT22;22676;51.120;3.702;2023-11-19T00:27:29;22.00;53.70
36690;DHT22;22676;51.120;3.702;2023-11-19T00:29:54;22.10;53.70
36690;DHT22;22676;51.120;3.702;2023-11-19T00:32:20;22.10;53.80
36690;DHT22;22676;51.120;3.702;2023-11-19T00:34:46;22.10;53.70
36690;DHT22;22676;51.120;3.702;2023-11-19T00:37:13;22.00;53.60
36690;DHT22;22676;51.120;3.702;2023-11-19T00:39:41;22.00;53.60
36690;DHT22;22676;51.120;3.702;2023-11-19T00:42:06;22.00;53.60
36690;DHT22;22676;51.120;3.702;2023-11-19T00:44:32;22.00;53.60
36690;DHT22;22676;51.120;3.702;2023-11-19T00:46:58;22.00;53.60
36690;DHT22;22676;51.120;3.702;2023-11-19T00:49:25;22.00;53.60
36690;DHT22;22676;51.120;3.702;2023-11-19T00:51:50;22.00;53.60
36690;DHT22;22676;51.120;3.702;2023-11-19T00:54:16;22.00;53.70
36690;DHT22;22676;51.120;3.702;2023-11-19T00:56:42;22.00;53.80
36690;DHT22;22676;51.120;3.702;2023-11-19T00:59:07;22.00;53.70
36690;DHT22;22676;51.120;3.702;2023-11-19T01:01:33;22.00;53.70
36690;DHT22;22676;51.120;3.702;2023-11-19T01:03:59;21.90;53.70
36690;DHT22;22676;51.120;3.702;2023-11-19T01:06:31;22.00;53.80
36690;DHT22;22676;51.120;3.702;2023-11-19T01:08:58;22.00;53.80
36690;DHT22;22676;51.120;3.702;2023-11-19T01:11:25;21.90;53.70
36690;DHT22;22676;51.120;3.702;2023-11-19T01:13:51;22.00;53.80
36690;DHT22;22676;51.120;3.702;2023-11-19T01:16:17;21.90;53.70
36690;DHT22;22676;51.120;3.702;2023-11-19T01:18:44;22.00;53.80
36690;DHT22;22676;51.120;3.702;2023-11-19T01:21:10;21.90;53.70
36690;DHT22;22676;51.120;3.702;2023-11-19T01:23:36;21.90;53.60
36690;DHT22;22676;51.120;3.702;2023-11-19T01:26:02;22.00;53.70
36690;DHT22;22676;51.120;3.702;2023-11-19T01:28:28;21.90;53.60
36690;DHT22;22676;51.120;3.702;2023-11-19T01:30:54;21.90;53.60
36690;DHT22;22676;51.120;3.702;2023-11-19T01:33:20;21.90;53.60
36690;DHT22;22676;51.120;3.702;2023-11-19T01:35:46;21.90;53.60
36690;DHT22;22676;51.120;3.702;2023-11-19T01:38:12;21.90;53.50
36690;DHT22;22676;51.120;3.702;2023-11-19T01:40:38;21.90;53.60
36690;DHT22;22676;51.120;3.702;2023-11-19T01:43:03;21.90;53.50
36690;DHT22;22676;51.120;3.702;2023-11-19T01:45:30;21.90;53.50
36690;DHT22;22676;51.120;3.702;2023-11-19T01:47:57;21.90;53.50
36690;DHT22;22676;51.120;3.702;2023-11-19T01:50:24;21.90;53.50
36690;DHT22;22676;51.120;3.702;2023-11-19T01:52:53;22.00;53.50
36690;DHT22;22676;51.120;3.702;2023-11-19T01:55:20;21.90;53.40
36690;DHT22;22676;51.120;3.702;2023-11-19T01:57:48;21.90;53.40
36690;DHT22;22676;51.120;3.702;2023-11-19T02:00:15;21.90;53.30
36690;DHT22;22676;51.120;3.702;2023-11-19T02:02:42;21.90;53.30
36690;DHT22;22676;51.120;3.702;2023-11-19T02:05:09;22.00;53.30
36690;DHT22;22676;51.120;3.702;2023-11-19T02:07:36;21.90;53.20
36690;DHT22;22676;51.120;3.702;2023-11-19T02:10:01;22.00;53.20
36690;DHT22;22676;51.120;3.702;2023-11-19T02:12:27;22.00;53.20
36690;DHT22;22676;51.120;3.702;2023-11-19T02:14:59;21.90;53.20
36690;DHT22;22676;51.120;3.702;2023-11-19T02:17:29;22.00;53.10
36690;DHT22;22676;51.120;3.702;2023-11-19T02:19:59;22.00;53.00
36690;DHT22;22676;51.120;3.702;2023-11-19T02:22:25;22.00;53.10
36690;DHT22;22676;51.120;3.702;2023-11-19T02:25:00;22.00;53.10
36690;DHT22;22676;51.120;3.702;2023-11-19T02:30:14;22.00;53.00
36690;DHT22;22676;51.120;3.702;2023-11-19T02:32:42;22.00;53.00
36690;DHT22;22676;51.120;3.702;2023-11-19T02:35:07;22.00;53.10
36690;DHT22;22676;51.120;3.702;2023-11-19T02:37:34;22.00;53.10
36690;DHT22;22676;51.120;3.702;2023-11-19T02:40:00;22.00;52.90
36690;DHT22;22676;51.120;3.702;2023-11-19T02:42:28;22.00;53.00
36690;DHT22;22676;51.120;3.702;2023-11-19T02:44:54;22.00;52.90
36690;DHT22;22676;51.120;3.702;2023-11-19T02:47:20;22.00;52.90
36690;DHT22;22676;51.120;3.702;2023-11-19T02:49:47;22.00;53.40
36690;DHT22;22676;51.120;3.702;2023-11-19T02:52:13;22.00;52.80
36690;DHT22;22676;51.120;3.702;2023-11-19T02:54:40;22.10;52.80
36690;DHT22;22676;51.120;3.702;2023-11-19T02:57:06;22.00;52.70
36690;DHT22;22676;51.120;3.702;2023-11-19T02:59:38;22.00;52.60
36690;DHT22;22676;51.120;3.702;2023-11-19T03:02:08;22.10;52.70
36690;DHT22;22676;51.120;3.702;2023-11-19T03:04:37;22.10;52.60
36690;DHT22;22676;51.120;3.702;2023-11-19T03:07:06;22.10;52.60
36690;DHT22;22676;51.120;3.702;2023-11-19T03:09:35;22.10;52.60
36690;DHT22;22676;51.120;3.702;2023-11-19T03:12:01;22.10;52.60
36690;DHT22;22676;51.120;3.702;2023-11-19T03:14:27;22.10;52.60
36690;DHT22;22676;51.120;3.702;2023-11-19T03:16:53;22.10;52.50
36690;DHT22;22676;51.120;3.702;2023-11-19T03:19:19;22.10;52.50
36690;DHT22;22676;51.120;3.702;2023-11-19T03:21:44;22.10;52.40
36690;DHT22;22676;51.120;3.702;2023-11-19T03:24:13;22.10;52.40
36690;DHT22;22676;51.120;3.702;2023-11-19T03:26:39;22.10;52.40
36690;DHT22;22676;51.120;3.702;2023-11-19T03:29:05;22.10;52.40
36690;DHT22;22676;51.120;3.702;2023-11-19T03:31:31;22.10;52.40
36690;DHT22;22676;51.120;3.702;2023-11-19T03:33:57;22.10;52.40
36690;DHT22;22676;51.120;3.702;2023-11-19T03:36:22;22.10;52.30
36690;DHT22;22676;51.120;3.702;2023-11-19T03:38:48;22.20;52.30
36690;DHT22;22676;51.120;3.702;2023-11-19T03:41:14;22.20;52.30
36690;DHT22;22676;51.120;3.702;2023-11-19T03:43:40;22.10;52.30
36690;DHT22;22676;51.120;3.702;2023-11-19T03:46:22;22.20;52.40
36690;DHT22;22676;51.120;3.702;2023-11-19T03:48:50;22.20;52.20
36690;DHT22;22676;51.120;3.702;2023-11-19T03:51:16;22.20;52.10
36690;DHT22;22676;51.120;3.702;2023-11-19T03:53:44;22.20;52.00
36690;DHT22;22676;51.120;3.702;2023-11-19T03:56:10;22.20;52.00
36690;DHT22;22676;51.120;3.702;2023-11-19T03:58:36;22.20;51.90
36690;DHT22;22676;51.120;3.702;2023-11-19T04:01:04;22.20;51.80
36690;DHT22;22676;51.120;3.702;2023-11-19T04:03:29;22.20;51.80
36690;DHT22;22676;51.120;3.702;2023-11-19T04:05:55;22.30;51.80
36690;DHT22;22676;51.120;3.702;2023-11-19T04:08:21;22.30;51.70
36690;DHT22;22676;51.120;3.702;2023-11-19T04:10:48;22.30;51.60
36690;DHT22;22676;51.120;3.702;2023-11-19T04:13:14;22.30;51.50
36690;DHT22;22676;51.120;3.702;2023-11-19T04:15:39;22.30;51.50
36690;DHT22;22676;51.120;3.702;2023-11-19T04:18:05;22.30;51.50
36690;DHT22;22676;51.120;3.702;2023-11-19T04:20:31;22.30;51.40
36690;DHT22;22676;51.120;3.702;2023-11-19T04:22:57;22.30;51.40
36690;DHT22;22676;51.120;3.702;2023-11-19T04:25:23;22.30;51.30
36690;DHT22;22676;51.120;3.702;2023-11-19T04:27:51;22.30;51.30
36690;DHT22;22676;51.120;3.702;2023-11-19T04:30:17;22.30;51.10
36690;DHT22;22676;51.120;3.702;2023-11-19T04:32:44;22.30;51.00
36690;DHT22;22676;51.120;3.702;2023-11-19T04:35:09;22.30;50.90
36690;DHT22;22676;51.120;3.702;2023-11-19T04:37:36;22.40;51.00
36690;DHT22;22676;51.120;3.702;2023-11-19T04:40:02;22.40;51.00
36690;DHT22;22676;51.120;3.702;2023-11-19T04:42:28;22.30;50.90
36690;DHT22;22676;51.120;3.702;2023-11-19T04:44:55;22.30;50.80
36690;DHT22;22676;51.120;3.702;2023-11-19T04:47:21;22.30;50.90
36690;DHT22;22676;51.120;3.702;2023-11-19T04:49:46;22.30;50.90
36690;DHT22;22676;51.120;3.702;2023-11-19T04:52:12;22.30;50.70
36690;DHT22;22676;51.120;3.702;2023-11-19T04:54:44;22.30;50.60
36690;DHT22;22676;51.120;3.702;2023-11-19T04:57:10;22.30;50.70
36690;DHT22;22676;51.120;3.702;2023-11-19T04:59:38;22.30;50.70
36690;DHT22;22676;51.120;3.702;2023-11-19T05:02:04;22.30;50.80
36690;DHT22;22676;51.120;3.702;2023-11-19T05:04:31;22.30;50.60
36690;DHT22;22676;51.120;3.702;2023-11-19T05:06:57;22.30;50.70
36690;DHT22;22676;51.120;3.702;2023-11-19T05:09:23;22.30;50.60
36690;DHT22;22676;51.120;3.702;2023-11-19T05:11:48;22.20;50.50
36690;DHT22;22676;51.120;3.702;2023-11-19T05:14:14;22.20;50.60
36690;DHT22;22676;51.120;3.702;2023-11-19T05:16:40;22.20;50.60
36690;DHT22;22676;51.120;3.702;2023-11-19T05:19:06;22.20;50.50
36690;DHT22;22676;51.120;3.702;2023-11-19T05:21:32;22.20;50.40
36690;DHT22;22676;51.120;3.702;2023-11-19T05:23:59;22.20;50.40
36690;DHT22;22676;51.120;3.702;2023-11-19T05:26:24;22.30;50.40
36690;DHT22;22676;51.120;3.702;2023-11-19T05:28:50;22.20;50.40
36690;DHT22;22676;51.120;3.702;2023-11-19T05:31:17;22.20;50.50
36690;DHT22;22676;51.120;3.702;2023-11-19T05:33:43;22.20;50.40
36690;DHT22;22676;51.120;3.702;2023-11-19T05:36:11;22.20;50.40
36690;DHT22;22676;51.120;3.702;2023-11-19T05:38:37;22.20;50.30
36690;DHT22;22676;51.120;3.702;2023-11-19T05:41:03;22.20;50.30
36690;DHT22;22676;51.120;3.702;2023-11-19T05:43:30;22.30;50.30
36690;DHT22;22676;51.120;3.702;2023-11-19T05:45:56;22.20;50.20
36690;DHT22;22676;51.120;3.702;2023-11-19T05:48:21;22.20;50.90
36690;DHT22;22676;51.120;3.702;2023-11-19T05:50:47;22.20;50.30
36690;DHT22;22676;51.120;3.702;2023-11-19T05:53:15;22.20;50.30
36690;DHT22;22676;51.120;3.702;2023-11-19T05:55:40;22.20;50.30
36690;DHT22;22676;51.120;3.702;2023-11-19T05:58:14;22.20;50.30
36690;DHT22;22676;51.120;3.702;2023-11-19T06:00:40;22.30;50.40
36690;DHT22;22676;51.120;3.702;2023-11-19T06:03:07;22.30;50.20
36690;DHT22;22676;51.120;3.702;2023-11-19T06:05:32;22.20;50.30
36690;DHT22;22676;51.120;3.702;2023-11-19T06:07:58;22.30;50.20
36690;DHT22;22676;51.120;3.702;2023-11-19T06:10:24;22.30;50.30
36690;DHT22;22676;51.120;3.702;2023-11-19T06:13:00;22.30;50.20
36690;DHT22;22676;51.120;3.702;2023-11-19T06:15:30;22.30;50.10
36690;DHT22;22676;51.120;3.702;2023-11-19T06:17:56;22.40;50.00
36690;DHT22;22676;51.120;3.702;2023-11-19T06:20:23;22.40;49.90
36690;DHT22;22676;51.120;3.702;2023-11-19T06:22:49;22.40;49.90
36690;DHT22;22676;51.120;3.702;2023-11-19T06:25:15;22.50;49.70
36690;DHT22;22676;51.120;3.702;2023-11-19T06:27:42;22.50;49.70
36690;DHT22;22676;51.120;3.702;2023-11-19T06:30:08;22.60;49.50
36690;DHT22;22676;51.120;3.702;2023-11-19T06:32:35;22.60;49.30
36690;DHT22;22676;51.120;3.702;2023-11-19T06:35:00;22.70;49.20
36690;DHT22;22676;51.120;3.702;2023-11-19T06:37:26;22.70;49.10
36690;DHT22;22676;51.120;3.702;2023-11-19T06:39:52;22.80;48.90
36690;DHT22;22676;51.120;3.702;2023-11-19T06:42:18;22.70;48.80
36690;DHT22;22676;51.120;3.702;2023-11-19T06:44:44;22.80;48.70
36690;DHT22;22676;51.120;3.702;2023-11-19T06:47:09;22.80;48.80
36690;DHT22;22676;51.120;3.702;2023-11-19T06:49:35;22.90;48.60
36690;DHT22;22676;51.120;3.702;2023-11-19T06:52:01;22.90;48.40
36690;DHT22;22676;51.120;3.702;2023-11-19T06:54:26;22.90;48.30
36690;DHT22;22676;51.120;3.702;2023-11-19T06:56:52;23.00;48.40
36690;DHT22;22676;51.120;3.702;2023-11-19T06:59:18;23.00;48.20
36690;DHT22;22676;51.120;3.702;2023-11-19T07:01:44;23.00;48.30
36690;DHT22;22676;51.120;3.702;2023-11-19T07:04:12;23.00;48.10
36690;DHT22;22676;51.120;3.702;2023-11-19T07:06:38;23.00;48.10
36690;DHT22;22676;51.120;3.702;2023-11-19T07:09:09;23.00;48.00
36690;DHT22;22676;51.120;3.702;2023-11-19T07:11:43;23.10;48.00
36690;DHT22;22676;51.120;3.702;2023-11-19T07:14:11;23.10;47.90
36690;DHT22;22676;51.120;3.702;2023-11-19T07:16:37;23.10;47.90
36690;DHT22;22676;51.120;3.702;2023-11-19T07:19:04;23.10;47.90
36690;DHT22;22676;51.120;3.702;2023-11-19T07:21:31;23.10;47.80
36690;DHT22;22676;51.120;3.702;2023-11-19T07:23:58;23.10;47.70
36690;DHT22;22676;51.120;3.702;2023-11-19T07:26:24;23.20;47.70
36690;DHT22;22676;51.120;3.702;2023-11-19T07:28:50;23.20;47.80
36690;DHT22;22676;51.120;3.702;2023-11-19T07:31:16;23.20;47.70
36690;DHT22;22676;51.120;3.702;2023-11-19T07:33:42;23.20;47.80
36690;DHT22;22676;51.120;3.702;2023-11-19T07:36:11;23.20;47.70
36690;DHT22;22676;51.120;3.702;2023-11-19T07:38:37;23.20;47.70
36690;DHT22;22676;51.120;3.702;2023-11-19T07:41:04;23.30;47.80
36690;DHT22;22676;51.120;3.702;2023-11-19T07:43:30;23.30;48.00
36690;DHT22;22676;51.120;3.702;2023-11-19T07:45:56;23.30;48.00
36690;DHT22;22676;51.120;3.702;2023-11-19T07:48:25;23.30;48.00
36690;DHT22;22676;51.120;3.702;2023-11-19T07:50:52;23.30;48.10
36690;DHT22;22676;51.120;3.702;2023-11-19T07:53:18;23.40;48.20
36690;DHT22;22676;51.120;3.702;2023-11-19T07:55:45;23.40;48.10
36690;DHT22;22676;51.120;3.702;2023-11-19T07:58:10;23.50;48.10
36690;DHT22;22676;51.120;3.702;2023-11-19T08:00:37;23.50;48.00
36690;DHT22;22676;51.120;3.702;2023-11-19T08:03:03;23.50;47.90
36690;DHT22;22676;51.120;3.702;2023-11-19T08:05:30;23.50;47.70
36690;DHT22;22676;51.120;3.702;2023-11-19T08:07:56;23.60;47.70
36690;DHT22;22676;51.120;3.702;2023-11-19T08:10:22;23.70;48.00
36690;DHT22;22676;51.120;3.702;2023-11-19T08:12:48;23.70;47.90
36690;DHT22;22676;51.120;3.702;2023-11-19T08:15:14;23.70;47.90
36690;DHT22;22676;51.120;3.702;2023-11-19T08:17:40;23.80;47.70
36690;DHT22;22676;51.120;3.702;2023-11-19T08:20:06;23.80;47.60
36690;DHT22;22676;51.120;3.702;2023-11-19T08:22:36;23.80;47.50
36690;DHT22;22676;51.120;3.702;2023-11-19T08:25:06;24.00;47.60
36690;DHT22;22676;51.120;3.702;2023-11-19T08:27:32;24.00;47.30
36690;DHT22;22676;51.120;3.702;2023-11-19T08:29:57;24.00;47.30
36690;DHT22;22676;51.120;3.702;2023-11-19T08:32:24;24.00;47.20
36690;DHT22;22676;51.120;3.702;2023-11-19T08:34:50;24.00;47.10
36690;DHT22;22676;51.120;3.702;2023-11-19T08:37:15;24.10;47.10
36690;DHT22;22676;51.120;3.702;2023-11-19T08:39:43;24.10;47.00
36690;DHT22;22676;51.120;3.702;2023-11-19T08:42:09;24.10;47.10
36690;DHT22;22676;51.120;3.702;2023-11-19T08:44:35;24.10;46.90
36690;DHT22;22676;51.120;3.702;2023-11-19T08:47:00;24.10;46.80
36690;DHT22;22676;51.120;3.702;2023-11-19T08:49:26;24.10;46.90
36690;DHT22;22676;51.120;3.702;2023-11-19T08:51:51;24.10;47.00
36690;DHT22;22676;51.120;3.702;2023-11-19T08:54:17;24.10;47.10
36690;DHT22;22676;51.120;3.702;2023-11-19T08:56:43;24.10;47.20
36690;DHT22;22676;51.120;3.702;2023-11-19T08:59:08;24.00;47.20
36690;DHT22;22676;51.120;3.702;2023-11-19T09:01:34;24.00;47.40
36690;DHT22;22676;51.120;3.702;2023-11-19T09:04:00;24.00;47.50
36690;DHT22;22676;51.120;3.702;2023-11-19T09:06:25;24.00;47.60
36690;DHT22;22676;51.120;3.702;2023-11-19T09:08:51;24.00;47.60
36690;DHT22;22676;51.120;3.702;2023-11-19T09:11:17;24.00;47.70
36690;DHT22;22676;51.120;3.702;2023-11-19T09:13:43;24.00;47.70
36690;DHT22;22676;51.120;3.702;2023-11-19T09:16:12;24.00;47.60
36690;DHT22;22676;51.120;3.702;2023-11-19T09:18:37;24.00;47.70
36690;DHT22;22676;51.120;3.702;2023-11-19T09:21:03;24.00;47.80
36690;DHT22;22676;51.120;3.702;2023-11-19T09:23:29;24.00;47.80
36690;DHT22;22676;51.120;3.702;2023-11-19T09:25:58;24.00;47.90
36690;DHT22;22676;51.120;3.702;2023-11-19T09:28:23;24.00;47.60
36690;DHT22;22676;51.120;3.702;2023-11-19T09:30:49;24.10;47.70
36690;DHT22;22676;51.120;3.702;2023-11-19T09:33:15;24.00;47.70
36690;DHT22;22676;51.120;3.702;2023-11-19T09:35:40;24.00;47.80
36690;DHT22;22676;51.120;3.702;2023-11-19T09:38:06;24.00;48.10
36690;DHT22;22676;51.120;3.702;2023-11-19T09:40:32;23.90;48.40
36690;DHT22;22676;51.120;3.702;2023-11-19T09:42:57;23.90;48.40
36690;DHT22;22676;51.120;3.702;2023-11-19T09:45:27;23.80;48.50
36690;DHT22;22676;51.120;3.702;2023-11-19T09:47:53;23.80;48.40
36690;DHT22;22676;51.120;3.702;2023-11-19T09:50:20;23.80;48.60
36690;DHT22;22676;51.120;3.702;2023-11-19T09:52:47;23.80;48.80
36690;DHT22;22676;51.120;3.702;2023-11-19T09:55:13;23.70;48.70
36690;DHT22;22676;51.120;3.702;2023-11-19T09:57:40;23.70;49.20
36690;DHT22;22676;51.120;3.702;2023-11-19T10:00:08;23.60;49.50
36690;DHT22;22676;51.120;3.702;2023-11-19T10:02:36;23.50;49.80
36690;DHT22;22676;51.120;3.702;2023-11-19T10:05:06;23.50;50.10
36690;DHT22;22676;51.120;3.702;2023-11-19T10:07:35;23.40;50.20
36690;DHT22;22676;51.120;3.702;2023-11-19T10:10:04;23.40;50.20
36690;DHT22;22676;51.120;3.702;2023-11-19T10:12:30;23.40;50.30
36690;DHT22;22676;51.120;3.702;2023-11-19T10:14:57;23.30;50.30
36690;DHT22;22676;51.120;3.702;2023-11-19T10:17:33;23.30;50.50
36690;DHT22;22676;51.120;3.702;2023-11-19T10:19:59;23.30;50.50
36690;DHT22;22676;51.120;3.702;2023-11-19T10:22:25;23.20;50.50
36690;DHT22;22676;51.120;3.702;2023-11-19T10:24:52;23.20;50.60
36690;DHT22;22676;51.120;3.702;2023-11-19T10:27:18;23.20;50.60
36690;DHT22;22676;51.120;3.702;2023-11-19T10:29:47;23.20;50.80
36690;DHT22;22676;51.120;3.702;2023-11-19T10:32:13;23.20;50.80
36690;DHT22;22676;51.120;3.702;2023-11-19T10:34:42;23.20;50.80
36690;DHT22;22676;51.120;3.702;2023-11-19T10:37:09;23.20;50.80
36690;DHT22;22676;51.120;3.702;2023-11-19T10:40:01;23.20;50.70
36690;DHT22;22676;51.120;3.702;2023-11-19T10:42:30;23.20;50.80
36690;DHT22;22676;51.120;3.702;2023-11-19T10:44:56;23.10;50.70
36690;DHT22;22676;51.120;3.702;2023-11-19T10:47:23;23.10;50.80
36690;DHT22;22676;51.120;3.702;2023-11-19T10:49:49;23.10;50.90
36690;DHT22;22676;51.120;3.702;2023-11-19T10:52:18;23.10;50.80
36690;DHT22;22676;51.120;3.702;2023-11-19T10:54:50;23.10;50.90
36690;DHT22;22676;51.120;3.702;2023-11-19T10:57:24;23.10;50.90
36690;DHT22;22676;51.120;3.702;2023-11-19T11:00:00;23.10;51.10
36690;DHT22;22676;51.120;3.702;2023-11-19T11:02:27;23.00;51.00
36690;DHT22;22676;51.120;3.702;2023-11-19T11:04:54;23.10;51.20
36690;DHT22;22676;51.120;3.702;2023-11-19T11:07:22;23.00;51.10
36690;DHT22;22676;51.120;3.702;2023-11-19T11:09:51;23.10;50.90
36690;DHT22;22676;51.120;3.702;2023-11-19T11:12:18;23.10;51.00
36690;DHT22;22676;51.120;3.702;2023-11-19T11:14:47;23.10;51.10
36690;DHT22;22676;51.120;3.702;2023-11-19T11:17:17;23.00;51.20
36690;DHT22;22676;51.120;3.702;2023-11-19T11:19:43;23.00;51.30
36690;DHT22;22676;51.120;3.702;2023-11-19T11:22:09;22.90;51.40
36690;DHT22;22676;51.120;3.702;2023-11-19T11:38:27;22.90;51.90
36690;DHT22;22676;51.120;3.702;2023-11-19T11:41:22;23.00;51.90
36690;DHT22;22676;51.120;3.702;2023-11-19T11:49:03;23.10;51.90
36690;DHT22;22676;51.120;3.702;2023-11-19T11:54:14;23.20;51.50
36690;DHT22;22676;51.120;3.702;2023-11-19T12:02:11;23.20;51.40
36690;DHT22;22676;51.120;3.702;2023-11-19T12:04:37;23.30;51.40
36690;DHT22;22676;51.120;3.702;2023-11-19T12:07:13;23.30;51.30
36690;DHT22;22676;51.120;3.702;2023-11-19T12:09:50;23.40;51.20
36690;DHT22;22676;51.120;3.702;2023-11-19T12:12:18;23.30;51.10
36690;DHT22;22676;51.120;3.702;2023-11-19T12:17:49;23.50;51.20
36690;DHT22;22676;51.120;3.702;2023-11-19T12:20:17;23.50;51.00
36690;DHT22;22676;51.120;3.702;2023-11-19T12:22:45;23.50;51.30
36690;DHT22;22676;51.120;3.702;2023-11-19T12:25:12;23.50;51.50
36690;DHT22;22676;51.120;3.702;2023-11-19T12:27:43;23.60;51.20
36690;DHT22;22676;51.120;3.702;2023-11-19T12:30:09;23.50;51.20
36690;DHT22;22676;51.120;3.702;2023-11-19T12:32:47;23.60;51.20
36690;DHT22;22676;51.120;3.702;2023-11-19T12:35:13;23.60;51.40
36690;DHT22;22676;51.120;3.702;2023-11-19T12:37:40;23.60;51.20
36690;DHT22;22676;51.120;3.702;2023-11-19T12:42:41;23.60;51.30
36690;DHT22;22676;51.120;3.702;2023-11-19T12:45:07;23.60;51.20
36690;DHT22;22676;51.120;3.702;2023-11-19T12:47:37;23.60;51.30
36690;DHT22;22676;51.120;3.702;2023-11-19T12:50:03;23.70;51.20
36690;DHT22;22676;51.120;3.702;2023-11-19T12:52:30;23.70;51.20
36690;DHT22;22676;51.120;3.702;2023-11-19T12:54:55;23.70;51.30
36690;DHT22;22676;51.120;3.702;2023-11-19T12:57:41;23.70;51.30
36690;DHT22;22676;51.120;3.702;2023-11-19T13:00:17;23.80;51.20
36690;DHT22;22676;51.120;3.702;2023-11-19T13:02:54;23.80;51.20
36690;DHT22;22676;51.120;3.702;2023-11-19T13:05:27;23.90;51.40
36690;DHT22;22676;51.120;3.702;2023-11-19T13:08:07;23.90;52.10
36690;DHT22;22676;51.120;3.702;2023-11-19T13:10:44;24.00;52.30
36690;DHT22;22676;51.120;3.702;2023-11-19T13:13:19;24.00;52.50
36690;DHT22;22676;51.120;3.702;2023-11-19T13:15:45;24.00;52.60
36690;DHT22;22676;51.120;3.702;2023-11-19T13:18:11;24.00;52.60
36690;DHT22;22676;51.120;3.702;2023-11-19T13:20:37;24.00;52.40
36690;DHT22;22676;51.120;3.702;2023-11-19T13:23:05;24.00;52.40
36690;DHT22;22676;51.120;3.702;2023-11-19T13:25:31;24.00;52.30
36690;DHT22;22676;51.120;3.702;2023-11-19T13:27:58;24.00;52.30
36690;DHT22;22676;51.120;3.702;2023-11-19T13:30:24;24.00;52.40
36690;DHT22;22676;51.120;3.702;2023-11-19T13:32:51;24.00;52.20
36690;DHT22;22676;51.120;3.702;2023-11-19T13:35:18;24.00;52.00
36690;DHT22;22676;51.120;3.702;2023-11-19T13:37:44;24.00;52.50
36690;DHT22;22676;51.120;3.702;2023-11-19T13:40:11;23.90;52.10
36690;DHT22;22676;51.120;3.702;2023-11-19T13:42:40;24.00;51.90
36690;DHT22;22676;51.120;3.702;2023-11-19T13:45:10;24.00;51.80
36690;DHT22;22676;51.120;3.702;2023-11-19T13:47:38;24.00;51.70
36690;DHT22;22676;51.120;3.702;2023-11-19T13:50:10;24.00;51.80
36690;DHT22;22676;51.120;3.702;2023-11-19T13:52:40;24.00;51.70
36690;DHT22;22676;51.120;3.702;2023-11-19T13:55:08;24.00;51.70
36690;DHT22;22676;51.120;3.702;2023-11-19T13:57:39;24.00;51.60
36690;DHT22;22676;51.120;3.702;2023-11-19T14:00:07;24.00;51.50
36690;DHT22;22676;51.120;3.702;2023-11-19T14:02:38;24.00;51.60
36690;DHT22;22676;51.120;3.702;2023-11-19T14:05:05;23.90;51.40
36690;DHT22;22676;51.120;3.702;2023-11-19T14:07:31;24.00;51.40
36690;DHT22;22676;51.120;3.702;2023-11-19T14:09:57;23.90;51.40
36690;DHT22;22676;51.120;3.702;2023-11-19T14:12:22;24.00;51.50
36690;DHT22;22676;51.120;3.702;2023-11-19T14:14:48;23.90;51.50
36690;DHT22;22676;51.120;3.702;2023-11-19T14:17:14;23.90;51.60
36690;DHT22;22676;51.120;3.702;2023-11-19T14:19:41;24.00;51.40
36690;DHT22;22676;51.120;3.702;2023-11-19T14:22:07;23.90;51.40
36690;DHT22;22676;51.120;3.702;2023-11-19T14:24:34;23.90;51.50
36690;DHT22;22676;51.120;3.702;2023-11-19T14:27:00;23.90;51.40
36690;DHT22;22676;51.120;3.702;2023-11-19T14:29:26;24.00;51.30
36690;DHT22;22676;51.120;3.702;2023-11-19T14:31:52;24.00;51.40
36690;DHT22;22676;51.120;3.702;2023-11-19T14:34:21;23.90;51.30
36690;DHT22;22676;51.120;3.702;2023-11-19T14:36:47;23.90;51.50
36690;DHT22;22676;51.120;3.702;2023-11-19T14:39:13;23.90;51.60
36690;DHT22;22676;51.120;3.702;2023-11-19T14:41:39;23.90;51.60
36690;DHT22;22676;51.120;3.702;2023-11-19T14:44:05;23.90;51.60
36690;DHT22;22676;51.120;3.702;2023-11-19T14:46:31;24.00;51.50
36690;DHT22;22676;51.120;3.702;2023-11-19T14:48:57;24.00;51.50
36690;DHT22;22676;51.120;3.702;2023-11-19T14:51:22;24.00;51.40
36690;DHT22;22676;51.120;3.702;2023-11-19T14:53:48;24.00;51.20
36690;DHT22;22676;51.120;3.702;2023-11-19T14:56:14;24.00;51.20
36690;DHT22;22676;51.120;3.702;2023-11-19T14:58:40;24.00;51.30
36690;DHT22;22676;51.120;3.702;2023-11-19T15:01:06;24.00;51.70
36690;DHT22;22676;51.120;3.702;2023-11-19T15:03:33;24.00;51.70
36690;DHT22;22676;51.120;3.702;2023-11-19T15:05:59;24.00;51.80
36690;DHT22;22676;51.120;3.702;2023-11-19T15:08:25;24.00;51.60
36690;DHT22;22676;51.120;3.702;2023-11-19T15:10:50;24.10;51.50
36690;DHT22;22676;51.120;3.702;2023-11-19T15:13:16;24.10;51.40
36690;DHT22;22676;51.120;3.702;2023-11-19T15:15:42;24.10;51.40
36690;DHT22;22676;51.120;3.702;2023-11-19T15:18:08;24.20;51.60
36690;DHT22;22676;51.120;3.702;2023-11-19T15:20:35;24.20;51.60
36690;DHT22;22676;51.120;3.702;2023-11-19T15:23:01;24.10;51.50
36690;DHT22;22676;51.120;3.702;2023-11-19T15:25:27;24.20;51.60
36690;DHT22;22676;51.120;3.702;2023-11-19T15:27:53;24.20;51.30
36690;DHT22;22676;51.120;3.702;2023-11-19T15:30:19;24.20;51.40
36690;DHT22;22676;51.120;3.702;2023-11-19T15:32:44;24.20;51.50
36690;DHT22;22676;51.120;3.702;2023-11-19T15:35:10;24.30;51.40
36690;DHT22;22676;51.120;3.702;2023-11-19T15:37:37;24.20;51.30
36690;DHT22;22676;51.120;3.702;2023-11-19T15:40:06;24.20;51.30
36690;DHT22;22676;51.120;3.702;2023-11-19T15:42:34;24.10;51.50
36690;DHT22;22676;51.120;3.702;2023-11-19T15:45:00;24.10;51.70
36690;DHT22;22676;51.120;3.702;2023-11-19T15:47:25;24.10;51.80
36690;DHT22;22676;51.120;3.702;2023-11-19T15:49:51;24.10;51.90
36690;DHT22;22676;51.120;3.702;2023-11-19T15:52:17;24.10;51.80
36690;DHT22;22676;51.120;3.702;2023-11-19T15:54:42;24.10;51.70
36690;DHT22;22676;51.120;3.702;2023-11-19T15:57:10;24.10;51.70
36690;DHT22;22676;51.120;3.702;2023-11-19T15:59:36;24.00;51.80
36690;DHT22;22676;51.120;3.702;2023-11-19T16:02:01;24.10;51.70
36690;DHT22;22676;51.120;3.702;2023-11-19T16:04:27;24.00;51.90